Llandrindod Wells, United Kingdom
Current Conditions -  °F | °C
As of 10:50 AM on Wednesday 26 Nov 2014 (Local Time) from EGOS Reporting Station
Drizzle Drizzle  
Wind Chill: 39°   Ceiling: 700
Heat Index: 43°   Visibility: 1.1mi
Dew Point: 43°   Wind: 6mph
Humidity: 100%   Direction: 350°N
Pressure: 29.88"   Gusts: NA
Location:  52.24°N, 3.38°W
Report Text: EGOS 261050Z 35005KT 1800 -DZ FEW003 OVC007 06/06 Q1012 YLO2 TEMPO BKN005 YLO2
Loading
Personal Weather Stations






























Interactive Weather Map New forecast layout! Learn more

10-Day Weather Forecast

Advertisements
Track Severe Weather on mobile